sensor_id;sensor_type;location;lat;lon;timestamp;temperature;humidity
6988;DHT22;3534;49.960;8.018;2022-07-19T00:00:17;24.20;60.30
6988;DHT22;3534;49.960;8.018;2022-07-19T00:02:44;24.20;60.50
6988;DHT22;3534;49.960;8.018;2022-07-19T00:05:12;24.10;60.50
6988;DHT22;3534;49.960;8.018;2022-07-19T00:07:40;24.10;60.60
6988;DHT22;3534;49.960;8.018;2022-07-19T00:10:09;24.00;60.70
6988;DHT22;3534;49.960;8.018;2022-07-19T00:12:39;24.00;60.90
6988;DHT22;3534;49.960;8.018;2022-07-19T00:15:08;23.90;61.10
6988;DHT22;3534;49.960;8.018;2022-07-19T00:17:39;23.90;61.20
6988;DHT22;3534;49.960;8.018;2022-07-19T00:20:07;23.80;61.20
6988;DHT22;3534;49.960;8.018;2022-07-19T00:22:34;23.80;61.30
6988;DHT22;3534;49.960;8.018;2022-07-19T00:25:01;23.70;61.10
6988;DHT22;3534;49.960;8.018;2022-07-19T00:27:27;23.70;61.60
6988;DHT22;3534;49.960;8.018;2022-07-19T00:29:55;23.70;62.00
6988;DHT22;3534;49.960;8.018;2022-07-19T00:32:22;23.60;62.50
6988;DHT22;3534;49.960;8.018;2022-07-19T00:34:49;23.50;62.70
6988;DHT22;3534;49.960;8.018;2022-07-19T00:37:16;23.50;63.10
6988;DHT22;3534;49.960;8.018;2022-07-19T00:39:42;23.40;63.40
6988;DHT22;3534;49.960;8.018;2022-07-19T00:42:09;23.30;63.40
6988;DHT22;3534;49.960;8.018;2022-07-19T00:44:36;23.30;63.50
6988;DHT22;3534;49.960;8.018;2022-07-19T00:47:05;23.20;63.50
6988;DHT22;3534;49.960;8.018;2022-07-19T00:49:32;23.10;63.60
6988;DHT22;3534;49.960;8.018;2022-07-19T00:51:59;23.10;63.80
6988;DHT22;3534;49.960;8.018;2022-07-19T00:54:28;23.00;63.90
6988;DHT22;3534;49.960;8.018;2022-07-19T00:56:55;22.90;64.00
6988;DHT22;3534;49.960;8.018;2022-07-19T00:59:26;22.90;64.30
6988;DHT22;3534;49.960;8.018;2022-07-19T01:01:54;22.90;64.40
6988;DHT22;3534;49.960;8.018;2022-07-19T01:04:23;22.90;64.40
6988;DHT22;3534;49.960;8.018;2022-07-19T01:06:50;22.90;64.30
6988;DHT22;3534;49.960;8.018;2022-07-19T01:09:16;22.80;64.70
6988;DHT22;3534;49.960;8.018;2022-07-19T01:11:43;22.80;64.80
6988;DHT22;3534;49.960;8.018;2022-07-19T01:14:10;22.80;64.90
6988;DHT22;3534;49.960;8.018;2022-07-19T01:16:43;22.80;65.10
6988;DHT22;3534;49.960;8.018;2022-07-19T01:19:09;22.80;65.40
6988;DHT22;3534;49.960;8.018;2022-07-19T01:21:37;22.70;65.30
6988;DHT22;3534;49.960;8.018;2022-07-19T01:24:04;22.70;65.20
6988;DHT22;3534;49.960;8.018;2022-07-19T01:26:31;22.70;65.40
6988;DHT22;3534;49.960;8.018;2022-07-19T01:28:58;22.60;65.50
6988;DHT22;3534;49.960;8.018;2022-07-19T01:31:24;22.60;65.80
6988;DHT22;3534;49.960;8.018;2022-07-19T01:33:51;22.60;66.10
6988;DHT22;3534;49.960;8.018;2022-07-19T01:36:18;22.50;66.30
6988;DHT22;3534;49.960;8.018;2022-07-19T01:38:46;22.50;66.50
6988;DHT22;3534;49.960;8.018;2022-07-19T01:41:13;22.40;66.50
6988;DHT22;3534;49.960;8.018;2022-07-19T01:43:39;22.40;67.00
6988;DHT22;3534;49.960;8.018;2022-07-19T01:46:06;22.30;67.30
6988;DHT22;3534;49.960;8.018;2022-07-19T01:48:34;22.20;67.50
6988;DHT22;3534;49.960;8.018;2022-07-19T01:51:00;22.20;67.80
6988;DHT22;3534;49.960;8.018;2022-07-19T01:53:27;22.20;67.90
6988;DHT22;3534;49.960;8.018;2022-07-19T01:55:55;22.10;68.10
6988;DHT22;3534;49.960;8.018;2022-07-19T01:58:22;22.10;68.20
6988;DHT22;3534;49.960;8.018;2022-07-19T02:00:48;22.00;68.50
6988;DHT22;3534;49.960;8.018;2022-07-19T02:03:15;22.00;69.00
6988;DHT22;3534;49.960;8.018;2022-07-19T02:05:43;21.90;69.20
6988;DHT22;3534;49.960;8.018;2022-07-19T02:08:10;21.90;69.40
6988;DHT22;3534;49.960;8.018;2022-07-19T02:10:37;21.80;69.40
6988;DHT22;3534;49.960;8.018;2022-07-19T02:13:05;21.80;69.50
6988;DHT22;3534;49.960;8.018;2022-07-19T02:15:32;21.80;70.00
6988;DHT22;3534;49.960;8.018;2022-07-19T02:17:59;21.80;69.90
6988;DHT22;3534;49.960;8.018;2022-07-19T02:20:26;21.70;69.70
6988;DHT22;3534;49.960;8.018;2022-07-19T02:22:52;21.70;70.00
6988;DHT22;3534;49.960;8.018;2022-07-19T02:25:19;21.60;70.70
6988;DHT22;3534;49.960;8.018;2022-07-19T02:27:46;21.60;70.70
6988;DHT22;3534;49.960;8.018;2022-07-19T02:30:14;21.60;70.70
6988;DHT22;3534;49.960;8.018;2022-07-19T02:32:43;21.50;71.80
6988;DHT22;3534;49.960;8.018;2022-07-19T02:35:11;21.50;72.30
6988;DHT22;3534;49.960;8.018;2022-07-19T02:37:38;21.50;72.40
6988;DHT22;3534;49.960;8.018;2022-07-19T02:40:06;21.40;72.90
6988;DHT22;3534;49.960;8.018;2022-07-19T02:42:33;21.50;73.40
6988;DHT22;3534;49.960;8.018;2022-07-19T02:45:00;21.40;73.40
6988;DHT22;3534;49.960;8.018;2022-07-19T02:47:28;21.40;74.60
6988;DHT22;3534;49.960;8.018;2022-07-19T02:49:55;21.40;74.70
6988;DHT22;3534;49.960;8.018;2022-07-19T02:52:21;21.40;75.60
6988;DHT22;3534;49.960;8.018;2022-07-19T02:54:48;21.40;76.30
6988;DHT22;3534;49.960;8.018;2022-07-19T02:57:15;21.30;76.60
6988;DHT22;3534;49.960;8.018;2022-07-19T02:59:42;21.30;77.60
6988;DHT22;3534;49.960;8.018;2022-07-19T03:02:08;21.30;77.50
6988;DHT22;3534;49.960;8.018;2022-07-19T03:04:36;21.30;77.70
6988;DHT22;3534;49.960;8.018;2022-07-19T03:07:03;21.30;77.70
6988;DHT22;3534;49.960;8.018;2022-07-19T03:09:30;21.30;77.60
6988;DHT22;3534;49.960;8.018;2022-07-19T03:11:56;21.20;77.80
6988;DHT22;3534;49.960;8.018;2022-07-19T03:14:23;21.10;78.70
6988;DHT22;3534;49.960;8.018;2022-07-19T03:16:50;21.10;79.30
6988;DHT22;3534;49.960;8.018;2022-07-19T03:19:16;21.00;80.00
6988;DHT22;3534;49.960;8.018;2022-07-19T03:21:44;21.00;80.40
6988;DHT22;3534;49.960;8.018;2022-07-19T03:24:11;20.90;80.70
6988;DHT22;3534;49.960;8.018;2022-07-19T03:26:38;20.80;81.30
6988;DHT22;3534;49.960;8.018;2022-07-19T03:29:04;20.80;82.10
6988;DHT22;3534;49.960;8.018;2022-07-19T03:31:31;20.70;82.20
6988;DHT22;3534;49.960;8.018;2022-07-19T03:33:58;20.60;83.30
6988;DHT22;3534;49.960;8.018;2022-07-19T03:36:24;20.60;83.90
6988;DHT22;3534;49.960;8.018;2022-07-19T03:38:52;20.50;85.10
6988;DHT22;3534;49.960;8.018;2022-07-19T03:41:20;20.50;85.70
6988;DHT22;3534;49.960;8.018;2022-07-19T03:43:46;20.40;86.20
6988;DHT22;3534;49.960;8.018;2022-07-19T03:46:13;20.40;86.90
6988;DHT22;3534;49.960;8.018;2022-07-19T03:48:40;20.40;87.50
6988;DHT22;3534;49.960;8.018;2022-07-19T03:51:07;20.40;88.00
6988;DHT22;3534;49.960;8.018;2022-07-19T03:53:33;20.40;88.20
6988;DHT22;3534;49.960;8.018;2022-07-19T03:56:02;20.40;88.70
6988;DHT22;3534;49.960;8.018;2022-07-19T03:58:29;20.40;89.40
6988;DHT22;3534;49.960;8.018;2022-07-19T04:00:56;20.40;89.30
6988;DHT22;3534;49.960;8.018;2022-07-19T04:03:22;20.30;89.70
6988;DHT22;3534;49.960;8.018;2022-07-19T04:05:49;20.30;90.10
6988;DHT22;3534;49.960;8.018;2022-07-19T04:08:16;20.30;90.30
6988;DHT22;3534;49.960;8.018;2022-07-19T04:10:43;20.30;90.50
6988;DHT22;3534;49.960;8.018;2022-07-19T04:13:11;20.40;90.60
6988;DHT22;3534;49.960;8.018;2022-07-19T04:15:37;20.40;90.70
6988;DHT22;3534;49.960;8.018;2022-07-19T04:18:04;20.40;91.00
6988;DHT22;3534;49.960;8.018;2022-07-19T04:20:31;20.30;91.40
6988;DHT22;3534;49.960;8.018;2022-07-19T04:22:57;20.30;91.90
6988;DHT22;3534;49.960;8.018;2022-07-19T04:25:24;20.30;92.30
6988;DHT22;3534;49.960;8.018;2022-07-19T04:27:51;20.40;92.60
6988;DHT22;3534;49.960;8.018;2022-07-19T04:30:19;20.30;93.40
6988;DHT22;3534;49.960;8.018;2022-07-19T04:32:46;20.30;93.70
6988;DHT22;3534;49.960;8.018;2022-07-19T04:35:13;20.30;94.00
6988;DHT22;3534;49.960;8.018;2022-07-19T04:37:41;20.30;94.50
6988;DHT22;3534;49.960;8.018;2022-07-19T04:40:09;20.30;94.60
6988;DHT22;3534;49.960;8.018;2022-07-19T04:42:35;20.20;94.80
6988;DHT22;3534;49.960;8.018;2022-07-19T04:45:02;20.30;95.80
6988;DHT22;3534;49.960;8.018;2022-07-19T04:47:31;20.20;96.10
6988;DHT22;3534;49.960;8.018;2022-07-19T04:49:58;20.30;96.30
6988;DHT22;3534;49.960;8.018;2022-07-19T04:52:25;20.30;96.60
6988;DHT22;3534;49.960;8.018;2022-07-19T04:54:52;20.30;96.60
6988;DHT22;3534;49.960;8.018;2022-07-19T04:57:18;20.30;96.50
6988;DHT22;3534;49.960;8.018;2022-07-19T04:59:45;20.40;96.60
6988;DHT22;3534;49.960;8.018;2022-07-19T05:02:12;20.40;97.00
6988;DHT22;3534;49.960;8.018;2022-07-19T05:04:40;20.40;97.30
6988;DHT22;3534;49.960;8.018;2022-07-19T05:07:07;20.40;97.40
6988;DHT22;3534;49.960;8.018;2022-07-19T05:09:33;20.30;98.10
6988;DHT22;3534;49.960;8.018;2022-07-19T05:12:00;20.30;98.20
6988;DHT22;3534;49.960;8.018;2022-07-19T05:14:30;20.40;98.70
6988;DHT22;3534;49.960;8.018;2022-07-19T05:16:57;20.40;99.00
6988;DHT22;3534;49.960;8.018;2022-07-19T05:19:24;20.50;99.30
6988;DHT22;3534;49.960;8.018;2022-07-19T05:21:52;20.50;99.40
6988;DHT22;3534;49.960;8.018;2022-07-19T05:24:19;20.50;99.90
6988;DHT22;3534;49.960;8.018;2022-07-19T05:26:45;20.50;99.90
6988;DHT22;3534;49.960;8.018;2022-07-19T05:29:12;20.50;99.90
6988;DHT22;3534;49.960;8.018;2022-07-19T05:31:39;20.50;99.90
6988;DHT22;3534;49.960;8.018;2022-07-19T05:34:06;20.50;99.90
6988;DHT22;3534;49.960;8.018;2022-07-19T05:36:33;20.60;99.90
6988;DHT22;3534;49.960;8.018;2022-07-19T05:39:01;20.60;99.90
6988;DHT22;3534;49.960;8.018;2022-07-19T05:41:27;20.60;99.90
6988;DHT22;3534;49.960;8.018;2022-07-19T05:43:54;20.60;99.80
6988;DHT22;3534;49.960;8.018;2022-07-19T05:46:21;20.60;99.60
6988;DHT22;3534;49.960;8.018;2022-07-19T05:48:48;20.50;99.80
6988;DHT22;3534;49.960;8.018;2022-07-19T05:51:14;20.50;99.90
6988;DHT22;3534;49.960;8.018;2022-07-19T05:53:42;20.40;99.90
6988;DHT22;3534;49.960;8.018;2022-07-19T05:56:10;20.50;99.90
6988;DHT22;3534;49.960;8.018;2022-07-19T05:58:37;20.60;99.80
6988;DHT22;3534;49.960;8.018;2022-07-19T06:01:04;20.60;99.80
6988;DHT22;3534;49.960;8.018;2022-07-19T06:03:50;20.60;99.90
6988;DHT22;3534;49.960;8.018;2022-07-19T06:06:18;20.60;99.90
6988;DHT22;3534;49.960;8.018;2022-07-19T06:08:45;20.70;99.90
6988;DHT22;3534;49.960;8.018;2022-07-19T06:11:14;20.80;99.90
6988;DHT22;3534;49.960;8.018;2022-07-19T06:13:41;20.80;99.90
6988;DHT22;3534;49.960;8.018;2022-07-19T06:16:09;20.80;99.90
6988;DHT22;3534;49.960;8.018;2022-07-19T06:18:36;20.80;99.90
6988;DHT22;3534;49.960;8.018;2022-07-19T06:21:04;20.90;99.90
6988;DHT22;3534;49.960;8.018;2022-07-19T06:23:31;21.00;99.90
6988;DHT22;3534;49.960;8.018;2022-07-19T06:25:58;21.00;99.90
6988;DHT22;3534;49.960;8.018;2022-07-19T06:28:27;21.10;99.90
6988;DHT22;3534;49.960;8.018;2022-07-19T06:30:53;21.20;99.90
6988;DHT22;3534;49.960;8.018;2022-07-19T06:33:20;21.30;99.90
6988;DHT22;3534;49.960;8.018;2022-07-19T06:35:47;21.30;99.90
6988;DHT22;3534;49.960;8.018;2022-07-19T06:38:14;21.30;99.90
6988;DHT22;3534;49.960;8.018;2022-07-19T06:40:41;21.40;99.90
6988;DHT22;3534;49.960;8.018;2022-07-19T06:43:09;21.40;99.90
6988;DHT22;3534;49.960;8.018;2022-07-19T06:45:38;21.40;99.90
6988;DHT22;3534;49.960;8.018;2022-07-19T06:48:05;21.50;99.90
6988;DHT22;3534;49.960;8.018;2022-07-19T06:50:32;21.50;99.90
6988;DHT22;3534;49.960;8.018;2022-07-19T06:52:59;21.60;99.90
6988;DHT22;3534;49.960;8.018;2022-07-19T06:55:26;21.70;99.90
6988;DHT22;3534;49.960;8.018;2022-07-19T06:57:53;21.70;99.90
6988;DHT22;3534;49.960;8.018;2022-07-19T07:00:20;21.80;99.90
6988;DHT22;3534;49.960;8.018;2022-07-19T07:02:48;21.80;99.90
6988;DHT22;3534;49.960;8.018;2022-07-19T07:05:15;21.90;99.90
6988;DHT22;3534;49.960;8.018;2022-07-19T07:07:41;21.90;99.90
6988;DHT22;3534;49.960;8.018;2022-07-19T07:10:09;22.00;99.90
6988;DHT22;3534;49.960;8.018;2022-07-19T07:12:36;22.10;99.90
6988;DHT22;3534;49.960;8.018;2022-07-19T07:15:03;22.10;99.90
6988;DHT22;3534;49.960;8.018;2022-07-19T07:17:30;22.20;99.90
6988;DHT22;3534;49.960;8.018;2022-07-19T07:19:58;22.30;99.70
6988;DHT22;3534;49.960;8.018;2022-07-19T07:22:25;22.30;99.70
6988;DHT22;3534;49.960;8.018;2022-07-19T07:24:51;22.50;99.90
6988;DHT22;3534;49.960;8.018;2022-07-19T07:27:18;22.50;99.30
6988;DHT22;3534;49.960;8.018;2022-07-19T07:29:45;22.60;99.20
6988;DHT22;3534;49.960;8.018;2022-07-19T07:32:12;22.70;98.80
6988;DHT22;3534;49.960;8.018;2022-07-19T07:34:38;22.80;97.80
6988;DHT22;3534;49.960;8.018;2022-07-19T07:37:07;22.90;97.70
6988;DHT22;3534;49.960;8.018;2022-07-19T07:39:33;23.00;97.40
6988;DHT22;3534;49.960;8.018;2022-07-19T07:42:01;23.10;97.40
6988;DHT22;3534;49.960;8.018;2022-07-19T07:44:29;23.10;97.10
6988;DHT22;3534;49.960;8.018;2022-07-19T07:46:55;23.20;96.90
6988;DHT22;3534;49.960;8.018;2022-07-19T07:49:22;23.20;96.70
6988;DHT22;3534;49.960;8.018;2022-07-19T07:51:49;23.30;96.70
6988;DHT22;3534;49.960;8.018;2022-07-19T07:54:17;23.40;96.40
6988;DHT22;3534;49.960;8.018;2022-07-19T07:56:44;23.50;96.30
6988;DHT22;3534;49.960;8.018;2022-07-19T07:59:11;23.50;96.10
6988;DHT22;3534;49.960;8.018;2022-07-19T08:01:38;23.70;95.70
6988;DHT22;3534;49.960;8.018;2022-07-19T08:04:05;23.70;95.60
6988;DHT22;3534;49.960;8.018;2022-07-19T08:06:32;23.80;95.40
6988;DHT22;3534;49.960;8.018;2022-07-19T08:08:59;23.90;94.20
6988;DHT22;3534;49.960;8.018;2022-07-19T08:11:27;24.00;93.90
6988;DHT22;3534;49.960;8.018;2022-07-19T08:13:53;24.00;93.80
6988;DHT22;3534;49.960;8.018;2022-07-19T08:16:20;24.20;93.00
6988;DHT22;3534;49.960;8.018;2022-07-19T08:18:47;24.30;93.20
6988;DHT22;3534;49.960;8.018;2022-07-19T08:21:13;24.30;93.20
6988;DHT22;3534;49.960;8.018;2022-07-19T08:23:40;24.40;93.00
6988;DHT22;3534;49.960;8.018;2022-07-19T08:26:07;24.50;92.30
6988;DHT22;3534;49.960;8.018;2022-07-19T08:28:35;24.60;92.20
6988;DHT22;3534;49.960;8.018;2022-07-19T08:31:02;24.70;92.00
6988;DHT22;3534;49.960;8.018;2022-07-19T08:33:29;24.70;91.50
6988;DHT22;3534;49.960;8.018;2022-07-19T08:35:55;24.90;91.00
6988;DHT22;3534;49.960;8.018;2022-07-19T08:38:22;24.90;90.80
6988;DHT22;3534;49.960;8.018;2022-07-19T08:40:51;25.00;91.10
6988;DHT22;3534;49.960;8.018;2022-07-19T08:43:18;25.10;91.30
6988;DHT22;3534;49.960;8.018;2022-07-19T08:45:48;25.20;91.20
6988;DHT22;3534;49.960;8.018;2022-07-19T08:48:15;25.20;90.40
6988;DHT22;3534;49.960;8.018;2022-07-19T08:50:44;25.30;90.40
6988;DHT22;3534;49.960;8.018;2022-07-19T08:53:11;25.40;90.30
6988;DHT22;3534;49.960;8.018;2022-07-19T08:55:38;25.50;89.90
6988;DHT22;3534;49.960;8.018;2022-07-19T08:58:05;25.60;89.70
6988;DHT22;3534;49.960;8.018;2022-07-19T09:00:33;25.60;89.50
6988;DHT22;3534;49.960;8.018;2022-07-19T09:03:04;25.70;89.20
6988;DHT22;3534;49.960;8.018;2022-07-19T09:05:32;25.80;88.60
6988;DHT22;3534;49.960;8.018;2022-07-19T09:08:06;25.90;88.00
6988;DHT22;3534;49.960;8.018;2022-07-19T09:10:35;26.00;87.20
6988;DHT22;3534;49.960;8.018;2022-07-19T09:13:06;26.00;87.10
6988;DHT22;3534;49.960;8.018;2022-07-19T09:15:54;26.20;87.40
6988;DHT22;3534;49.960;8.018;2022-07-19T09:18:24;26.30;87.40
6988;DHT22;3534;49.960;8.018;2022-07-19T09:20:53;26.40;87.20
6988;DHT22;3534;49.960;8.018;2022-07-19T09:23:21;26.50;85.70
6988;DHT22;3534;49.960;8.018;2022-07-19T09:25:49;26.60;85.20
6988;DHT22;3534;49.960;8.018;2022-07-19T09:28:17;26.70;85.10
6988;DHT22;3534;49.960;8.018;2022-07-19T09:30:45;26.70;82.40
6988;DHT22;3534;49.960;8.018;2022-07-19T09:33:14;26.80;82.20
6988;DHT22;3534;49.960;8.018;2022-07-19T09:35:44;26.90;82.40
6988;DHT22;3534;49.960;8.018;2022-07-19T09:38:19;27.00;82.10
6988;DHT22;3534;49.960;8.018;2022-07-19T09:40:46;27.00;81.30
6988;DHT22;3534;49.960;8.018;2022-07-19T09:43:14;27.10;77.20
6988;DHT22;3534;49.960;8.018;2022-07-19T09:45:40;27.30;73.30
6988;DHT22;3534;49.960;8.018;2022-07-19T09:48:07;27.40;71.70
6988;DHT22;3534;49.960;8.018;2022-07-19T09:50:34;27.50;70.90
6988;DHT22;3534;49.960;8.018;2022-07-19T09:53:04;27.60;71.20
6988;DHT22;3534;49.960;8.018;2022-07-19T09:55:31;27.60;70.50
6988;DHT22;3534;49.960;8.018;2022-07-19T09:57:59;27.80;69.60
6988;DHT22;3534;49.960;8.018;2022-07-19T10:00:27;27.80;69.20
6988;DHT22;3534;49.960;8.018;2022-07-19T10:02:57;27.90;68.50
6988;DHT22;3534;49.960;8.018;2022-07-19T10:05:25;28.00;68.30
6988;DHT22;3534;49.960;8.018;2022-07-19T10:07:53;28.00;70.40
6988;DHT22;3534;49.960;8.018;2022-07-19T10:10:22;28.10;71.90
6988;DHT22;3534;49.960;8.018;2022-07-19T10:12:50;28.20;69.10
6988;DHT22;3534;49.960;8.018;2022-07-19T10:15:18;28.30;67.00
6988;DHT22;3534;49.960;8.018;2022-07-19T10:18:00;28.40;66.70
6988;DHT22;3534;49.960;8.018;2022-07-19T10:20:28;28.50;66.60
6988;DHT22;3534;49.960;8.018;2022-07-19T10:22:57;28.70;66.30
6988;DHT22;3534;49.960;8.018;2022-07-19T10:25:37;28.70;64.40
6988;DHT22;3534;49.960;8.018;2022-07-19T10:28:04;28.80;64.50
6988;DHT22;3534;49.960;8.018;2022-07-19T10:30:39;28.90;64.30
6988;DHT22;3534;49.960;8.018;2022-07-19T10:33:27;28.90;64.00
6988;DHT22;3534;49.960;8.018;2022-07-19T10:35:54;28.90;64.50
6988;DHT22;3534;49.960;8.018;2022-07-19T10:38:21;29.00;63.90
6988;DHT22;3534;49.960;8.018;2022-07-19T10:40:50;29.00;64.50
6988;DHT22;3534;49.960;8.018;2022-07-19T10:43:18;29.10;64.40
6988;DHT22;3534;49.960;8.018;2022-07-19T10:46:08;29.20;64.80
6988;DHT22;3534;49.960;8.018;2022-07-19T10:48:36;29.30;64.00
6988;DHT22;3534;49.960;8.018;2022-07-19T10:51:03;29.40;64.00
6988;DHT22;3534;49.960;8.018;2022-07-19T10:53:57;29.40;63.00
6988;DHT22;3534;49.960;8.018;2022-07-19T10:56:38;29.50;63.40
6988;DHT22;3534;49.960;8.018;2022-07-19T10:59:06;29.60;62.90
6988;DHT22;3534;49.960;8.018;2022-07-19T11:01:35;29.60;62.80
6988;DHT22;3534;49.960;8.018;2022-07-19T11:04:21;29.70;61.30
6988;DHT22;3534;49.960;8.018;2022-07-19T11:06:49;29.80;62.20
6988;DHT22;3534;49.960;8.018;2022-07-19T11:09:16;29.80;62.00
6988;DHT22;3534;49.960;8.018;2022-07-19T11:11:44;29.90;62.60
6988;DHT22;3534;49.960;8.018;2022-07-19T11:14:10;30.10;62.40
6988;DHT22;3534;49.960;8.018;2022-07-19T11:16:37;30.20;61.90
6988;DHT22;3534;49.960;8.018;2022-07-19T11:19:06;30.20;60.40
6988;DHT22;3534;49.960;8.018;2022-07-19T11:21:33;30.30;60.80
6988;DHT22;3534;49.960;8.018;2022-07-19T11:24:02;30.40;59.10
6988;DHT22;3534;49.960;8.018;2022-07-19T11:26:35;30.50;58.00
6988;DHT22;3534;49.960;8.018;2022-07-19T11:29:04;30.60;58.30
6988;DHT22;3534;49.960;8.018;2022-07-19T11:31:32;30.70;57.00
6988;DHT22;3534;49.960;8.018;2022-07-19T11:33:59;30.70;55.80
6988;DHT22;3534;49.960;8.018;2022-07-19T11:36:27;30.70;55.00
6988;DHT22;3534;49.960;8.018;2022-07-19T11:38:55;30.80;54.20
6988;DHT22;3534;49.960;8.018;2022-07-19T11:41:24;30.90;54.30
6988;DHT22;3534;49.960;8.018;2022-07-19T11:43:52;30.90;53.80
6988;DHT22;3534;49.960;8.018;2022-07-19T11:46:21;30.90;53.30
6988;DHT22;3534;49.960;8.018;2022-07-19T11:48:49;31.00;52.80
6988;DHT22;3534;49.960;8.018;2022-07-19T11:51:16;31.00;53.20
6988;DHT22;3534;49.960;8.018;2022-07-19T11:53:43;31.00;56.20
6988;DHT22;3534;49.960;8.018;2022-07-19T11:56:20;31.10;53.10
6988;DHT22;3534;49.960;8.018;2022-07-19T11:58:47;31.20;53.70
6988;DHT22;3534;49.960;8.018;2022-07-19T12:01:14;31.30;53.30
6988;DHT22;3534;49.960;8.018;2022-07-19T12:03:52;31.30;53.00
6988;DHT22;3534;49.960;8.018;2022-07-19T12:06:19;31.30;52.50
6988;DHT22;3534;49.960;8.018;2022-07-19T12:08:46;31.40;51.70
6988;DHT22;3534;49.960;8.018;2022-07-19T12:11:22;31.60;52.40
6988;DHT22;3534;49.960;8.018;2022-07-19T12:13:49;31.70;52.10
6988;DHT22;3534;49.960;8.018;2022-07-19T12:16:17;31.70;52.00
6988;DHT22;3534;49.960;8.018;2022-07-19T12:18:48;31.70;53.70
6988;DHT22;3534;49.960;8.018;2022-07-19T12:21:24;31.80;51.90
6988;DHT22;3534;49.960;8.018;2022-07-19T12:24:20;31.80;52.60
6988;DHT22;3534;49.960;8.018;2022-07-19T12:26:58;31.90;51.70
6988;DHT22;3534;49.960;8.018;2022-07-19T12:29:27;32.00;51.50
6988;DHT22;3534;49.960;8.018;2022-07-19T12:31:57;32.00;53.00
6988;DHT22;3534;49.960;8.018;2022-07-19T12:34:26;32.10;52.60
6988;DHT22;3534;49.960;8.018;2022-07-19T12:36:53;32.20;52.00
6988;DHT22;3534;49.960;8.018;2022-07-19T12:39:23;32.30;52.00
6988;DHT22;3534;49.960;8.018;2022-07-19T12:42:02;32.40;51.70
6988;DHT22;3534;49.960;8.018;2022-07-19T12:44:30;32.60;51.20
6988;DHT22;3534;49.960;8.018;2022-07-19T12:46:59;32.70;51.00
6988;DHT22;3534;49.960;8.018;2022-07-19T12:49:40;32.90;51.10
6988;DHT22;3534;49.960;8.018;2022-07-19T12:52:07;33.00;50.80
6988;DHT22;3534;49.960;8.018;2022-07-19T12:54:33;33.20;51.50
6988;DHT22;3534;49.960;8.018;2022-07-19T12:57:00;33.40;52.30
6988;DHT22;3534;49.960;8.018;2022-07-19T12:59:27;33.60;51.30
6988;DHT22;3534;49.960;8.018;2022-07-19T13:02:06;33.90;50.70
6988;DHT22;3534;49.960;8.018;2022-07-19T13:04:34;34.10;51.40
6988;DHT22;3534;49.960;8.018;2022-07-19T13:07:01;34.20;51.90
6988;DHT22;3534;49.960;8.018;2022-07-19T13:09:28;34.50;50.40
6988;DHT22;3534;49.960;8.018;2022-07-19T13:11:54;34.90;49.50
6988;DHT22;3534;49.960;8.018;2022-07-19T13:14:21;35.20;48.80
6988;DHT22;3534;49.960;8.018;2022-07-19T13:16:49;35.70;48.30
6988;DHT22;3534;49.960;8.018;2022-07-19T13:19:16;36.10;47.20
6988;DHT22;3534;49.960;8.018;2022-07-19T13:21:44;36.60;47.50
6988;DHT22;3534;49.960;8.018;2022-07-19T13:24:11;37.20;46.20
6988;DHT22;3534;49.960;8.018;2022-07-19T13:26:38;37.70;46.00
6988;DHT22;3534;49.960;8.018;2022-07-19T13:29:05;38.10;45.20
6988;DHT22;3534;49.960;8.018;2022-07-19T13:31:32;38.50;44.60
6988;DHT22;3534;49.960;8.018;2022-07-19T13:34:02;39.00;42.90
6988;DHT22;3534;49.960;8.018;2022-07-19T13:36:29;39.50;42.40
6988;DHT22;3534;49.960;8.018;2022-07-19T13:38:57;40.00;41.80
6988;DHT22;3534;49.960;8.018;2022-07-19T13:41:23;40.40;40.70
6988;DHT22;3534;49.960;8.018;2022-07-19T13:43:50;40.70;41.10
6988;DHT22;3534;49.960;8.018;2022-07-19T13:46:18;41.00;40.40
6988;DHT22;3534;49.960;8.018;2022-07-19T13:48:45;41.40;39.60
6988;DHT22;3534;49.960;8.018;2022-07-19T13:51:12;41.90;39.70
6988;DHT22;3534;49.960;8.018;2022-07-19T13:53:39;42.20;38.60
6988;DHT22;3534;49.960;8.018;2022-07-19T13:56:07;42.50;38.40
6988;DHT22;3534;49.960;8.018;2022-07-19T13:58:34;42.70;38.00
6988;DHT22;3534;49.960;8.018;2022-07-19T14:01:01;43.00;36.90
6988;DHT22;3534;49.960;8.018;2022-07-19T14:03:28;43.20;38.80
6988;DHT22;3534;49.960;8.018;2022-07-19T14:05:54;43.40;36.40
6988;DHT22;3534;49.960;8.018;2022-07-19T14:08:22;43.50;35.50
6988;DHT22;3534;49.960;8.018;2022-07-19T14:10:49;43.30;35.80
6988;DHT22;3534;49.960;8.018;2022-07-19T14:13:22;43.60;35.70
6988;DHT22;3534;49.960;8.018;2022-07-19T14:15:49;43.70;35.30
6988;DHT22;3534;49.960;8.018;2022-07-19T14:18:16;43.90;35.10
6988;DHT22;3534;49.960;8.018;2022-07-19T14:20:42;43.90;35.00
6988;DHT22;3534;49.960;8.018;2022-07-19T14:23:10;44.30;34.90
6988;DHT22;3534;49.960;8.018;2022-07-19T14:25:36;44.40;34.90
6988;DHT22;3534;49.960;8.018;2022-07-19T14:28:04;44.70;34.90
6988;DHT22;3534;49.960;8.018;2022-07-19T14:30:33;44.70;38.60
6988;DHT22;3534;49.960;8.018;2022-07-19T14:33:00;45.00;34.40
6988;DHT22;3534;49.960;8.018;2022-07-19T14:35:28;45.10;34.60
6988;DHT22;3534;49.960;8.018;2022-07-19T14:37:55;45.60;33.30
6988;DHT22;3534;49.960;8.018;2022-07-19T14:40:22;45.80;32.70
6988;DHT22;3534;49.960;8.018;2022-07-19T14:42:49;46.10;31.50
6988;DHT22;3534;49.960;8.018;2022-07-19T14:45:16;46.20;31.60
6988;DHT22;3534;49.960;8.018;2022-07-19T14:47:44;46.10;32.00
6988;DHT22;3534;49.960;8.018;2022-07-19T14:50:12;46.20;31.00
6988;DHT22;3534;49.960;8.018;2022-07-19T14:52:39;46.40;32.00
6988;DHT22;3534;49.960;8.018;2022-07-19T14:55:07;46.60;30.70
6988;DHT22;3534;49.960;8.018;2022-07-19T14:57:34;46.70;30.60
6988;DHT22;3534;49.960;8.018;2022-07-19T15:00:01;46.80;30.50
6988;DHT22;3534;49.960;8.018;2022-07-19T15:02:28;47.00;31.60
6988;DHT22;3534;49.960;8.018;2022-07-19T15:04:57;47.10;31.80
6988;DHT22;3534;49.960;8.018;2022-07-19T15:07:24;47.20;33.40
6988;DHT22;3534;49.960;8.018;2022-07-19T15:09:51;47.10;30.20
6988;DHT22;3534;49.960;8.018;2022-07-19T15:12:18;47.10;30.00
6988;DHT22;3534;49.960;8.018;2022-07-19T15:14:46;47.10;31.50
6988;DHT22;3534;49.960;8.018;2022-07-19T15:17:12;47.20;29.40
6988;DHT22;3534;49.960;8.018;2022-07-19T15:19:39;47.20;29.50
6988;DHT22;3534;49.960;8.018;2022-07-19T15:22:07;47.30;28.80
6988;DHT22;3534;49.960;8.018;2022-07-19T15:24:34;47.40;29.00
6988;DHT22;3534;49.960;8.018;2022-07-19T15:27:01;47.30;29.10
6988;DHT22;3534;49.960;8.018;2022-07-19T15:29:27;47.40;29.30
6988;DHT22;3534;49.960;8.018;2022-07-19T15:31:54;47.30;29.30
6988;DHT22;3534;49.960;8.018;2022-07-19T15:34:21;47.30;31.40
6988;DHT22;3534;49.960;8.018;2022-07-19T15:36:47;47.20;28.80
6988;DHT22;3534;49.960;8.018;2022-07-19T15:39:15;47.30;29.00
6988;DHT22;3534;49.960;8.018;2022-07-19T15:41:42;47.10;31.00
6988;DHT22;3534;49.960;8.018;2022-07-19T15:44:09;47.30;29.30
6988;DHT22;3534;49.960;8.018;2022-07-19T15:46:36;47.30;28.60
6988;DHT22;3534;49.960;8.018;2022-07-19T15:49:03;47.30;28.70
6988;DHT22;3534;49.960;8.018;2022-07-19T15:51:31;47.40;28.10
6988;DHT22;3534;49.960;8.018;2022-07-19T15:53:58;47.40;28.00
6988;DHT22;3534;49.960;8.018;2022-07-19T15:56:26;47.60;28.00
6988;DHT22;3534;49.960;8.018;2022-07-19T15:58:53;47.60;27.60
6988;DHT22;3534;49.960;8.018;2022-07-19T16:01:20;47.70;27.50
6988;DHT22;3534;49.960;8.018;2022-07-19T16:03:46;47.80;27.70
6988;DHT22;3534;49.960;8.018;2022-07-19T16:06:13;47.80;27.90